sensor_id;sensor_type;location;lat;lon;timestamp;P1;durP1;ratioP1;P2;durP2;ratioP2
3225;SDS011;1625;49.884;8.666;2022-08-14T00:00:05;8.20;;;6.40;;
3225;SDS011;1625;49.884;8.666;2022-08-14T00:02:36;6.70;;;6.20;;
3225;SDS011;1625;49.884;8.666;2022-08-14T00:05:02;6.93;;;6.43;;
3225;SDS011;1625;49.884;8.666;2022-08-14T00:07:29;6.80;;;6.40;;
3225;SDS011;1625;49.884;8.666;2022-08-14T00:09:55;7.23;;;6.63;;
3225;SDS011;1625;49.884;8.666;2022-08-14T00:12:21;6.60;;;6.10;;
3225;SDS011;1625;49.884;8.666;2022-08-14T00:14:47;6.80;;;6.30;;
3225;SDS011;1625;49.884;8.666;2022-08-14T00:17:12;6.80;;;6.40;;
3225;SDS011;1625;49.884;8.666;2022-08-14T00:19:38;7.10;;;6.60;;
3225;SDS011;1625;49.884;8.666;2022-08-14T00:22:03;7.13;;;6.63;;
3225;SDS011;1625;49.884;8.666;2022-08-14T00:24:29;6.67;;;6.13;;
3225;SDS011;1625;49.884;8.666;2022-08-14T00:26:55;7.73;;;6.50;;
3225;SDS011;1625;49.884;8.666;2022-08-14T00:29:22;7.10;;;6.60;;
3225;SDS011;1625;49.884;8.666;2022-08-14T00:31:47;7.33;;;6.83;;
3225;SDS011;1625;49.884;8.666;2022-08-14T00:34:14;7.47;;;6.97;;
3225;SDS011;1625;49.884;8.666;2022-08-14T00:36:40;6.57;;;6.07;;
3225;SDS011;1625;49.884;8.666;2022-08-14T00:39:05;7.27;;;6.57;;
3225;SDS011;1625;49.884;8.666;2022-08-14T00:41:31;7.80;;;7.20;;
3225;SDS011;1625;49.884;8.666;2022-08-14T00:43:57;7.27;;;6.77;;
3225;SDS011;1625;49.884;8.666;2022-08-14T00:46:23;7.20;;;6.37;;
3225;SDS011;1625;49.884;8.666;2022-08-14T00:48:49;6.53;;;6.13;;
3225;SDS011;1625;49.884;8.666;2022-08-14T00:51:15;6.90;;;6.33;;
3225;SDS011;1625;49.884;8.666;2022-08-14T00:53:40;7.80;;;7.10;;
3225;SDS011;1625;49.884;8.666;2022-08-14T00:56:07;7.13;;;6.63;;
3225;SDS011;1625;49.884;8.666;2022-08-14T00:58:34;8.10;;;7.50;;
3225;SDS011;1625;49.884;8.666;2022-08-14T01:01:02;7.20;;;6.70;;
3225;SDS011;1625;49.884;8.666;2022-08-14T01:03:29;7.67;;;7.07;;
3225;SDS011;1625;49.884;8.666;2022-08-14T01:05:56;7.30;;;6.80;;
3225;SDS011;1625;49.884;8.666;2022-08-14T01:08:23;7.67;;;7.17;;
3225;SDS011;1625;49.884;8.666;2022-08-14T01:10:50;7.10;;;6.60;;
3225;SDS011;1625;49.884;8.666;2022-08-14T01:13:23;8.30;;;7.57;;
3225;SDS011;1625;49.884;8.666;2022-08-14T01:15:53;8.00;;;7.43;;
3225;SDS011;1625;49.884;8.666;2022-08-14T01:18:21;8.03;;;7.53;;
3225;SDS011;1625;49.884;8.666;2022-08-14T01:21:07;8.27;;;7.70;;
3225;SDS011;1625;49.884;8.666;2022-08-14T01:23:37;8.33;;;7.70;;
3225;SDS011;1625;49.884;8.666;2022-08-14T01:26:04;8.27;;;7.67;;
3225;SDS011;1625;49.884;8.666;2022-08-14T01:28:30;7.40;;;6.90;;
3225;SDS011;1625;49.884;8.666;2022-08-14T01:31:00;8.33;;;7.70;;
3225;SDS011;1625;49.884;8.666;2022-08-14T01:33:26;7.70;;;7.20;;
3225;SDS011;1625;49.884;8.666;2022-08-14T01:35:54;8.00;;;7.47;;
3225;SDS011;1625;49.884;8.666;2022-08-14T01:38:21;8.90;;;8.30;;
3225;SDS011;1625;49.884;8.666;2022-08-14T01:40:48;8.63;;;8.03;;
3225;SDS011;1625;49.884;8.666;2022-08-14T01:43:14;8.90;;;8.30;;
3225;SDS011;1625;49.884;8.666;2022-08-14T01:45:42;8.83;;;8.23;;
3225;SDS011;1625;49.884;8.666;2022-08-14T01:48:15;8.53;;;7.93;;
3225;SDS011;1625;49.884;8.666;2022-08-14T01:50:41;8.27;;;7.50;;
3225;SDS011;1625;49.884;8.666;2022-08-14T01:53:07;9.10;;;8.50;;
3225;SDS011;1625;49.884;8.666;2022-08-14T01:55:34;8.63;;;8.03;;
3225;SDS011;1625;49.884;8.666;2022-08-14T01:58:03;8.70;;;8.00;;
3225;SDS011;1625;49.884;8.666;2022-08-14T02:00:29;8.13;;;7.60;;
3225;SDS011;1625;49.884;8.666;2022-08-14T02:02:55;8.47;;;7.97;;
3225;SDS011;1625;49.884;8.666;2022-08-14T02:05:21;8.70;;;8.13;;
3225;SDS011;1625;49.884;8.666;2022-08-14T02:07:53;9.03;;;8.43;;
3225;SDS011;1625;49.884;8.666;2022-08-14T02:10:20;8.90;;;8.30;;
3225;SDS011;1625;49.884;8.666;2022-08-14T02:12:45;10.30;;;9.60;;
3225;SDS011;1625;49.884;8.666;2022-08-14T02:15:12;9.00;;;8.40;;
3225;SDS011;1625;49.884;8.666;2022-08-14T02:17:37;8.87;;;8.27;;
3225;SDS011;1625;49.884;8.666;2022-08-14T02:20:03;9.53;;;8.83;;
3225;SDS011;1625;49.884;8.666;2022-08-14T02:22:32;8.90;;;8.20;;
3225;SDS011;1625;49.884;8.666;2022-08-14T02:24:58;9.07;;;8.37;;
3225;SDS011;1625;49.884;8.666;2022-08-14T02:27:24;10.17;;;9.47;;
3225;SDS011;1625;49.884;8.666;2022-08-14T02:29:50;9.83;;;9.13;;
3225;SDS011;1625;49.884;8.666;2022-08-14T02:32:18;10.03;;;9.43;;
3225;SDS011;1625;49.884;8.666;2022-08-14T02:34:44;9.40;;;8.70;;
3225;SDS011;1625;49.884;8.666;2022-08-14T02:37:10;9.27;;;8.57;;
3225;SDS011;1625;49.884;8.666;2022-08-14T02:39:40;9.40;;;8.80;;
3225;SDS011;1625;49.884;8.666;2022-08-14T02:42:10;9.27;;;8.63;;
3225;SDS011;1625;49.884;8.666;2022-08-14T02:44:38;10.00;;;9.30;;
3225;SDS011;1625;49.884;8.666;2022-08-14T02:47:05;9.33;;;8.63;;
3225;SDS011;1625;49.884;8.666;2022-08-14T02:49:32;9.70;;;9.00;;
3225;SDS011;1625;49.884;8.666;2022-08-14T02:51:59;10.60;;;9.90;;
3225;SDS011;1625;49.884;8.666;2022-08-14T02:54:24;10.17;;;9.23;;
3225;SDS011;1625;49.884;8.666;2022-08-14T02:56:51;10.73;;;9.83;;
3225;SDS011;1625;49.884;8.666;2022-08-14T02:59:19;10.43;;;9.63;;
3225;SDS011;1625;49.884;8.666;2022-08-14T03:01:45;10.93;;;10.20;;
3225;SDS011;1625;49.884;8.666;2022-08-14T03:04:11;10.40;;;9.70;;
3225;SDS011;1625;49.884;8.666;2022-08-14T03:06:37;10.87;;;10.17;;
3225;SDS011;1625;49.884;8.666;2022-08-14T03:09:04;11.17;;;10.30;;
3225;SDS011;1625;49.884;8.666;2022-08-14T03:11:30;10.60;;;9.90;;
3225;SDS011;1625;49.884;8.666;2022-08-14T03:13:56;10.50;;;9.80;;
3225;SDS011;1625;49.884;8.666;2022-08-14T03:16:23;10.37;;;9.67;;
3225;SDS011;1625;49.884;8.666;2022-08-14T03:18:50;10.70;;;10.00;;
3225;SDS011;1625;49.884;8.666;2022-08-14T03:21:19;11.00;;;10.30;;
3225;SDS011;1625;49.884;8.666;2022-08-14T03:23:47;10.90;;;10.10;;
3225;SDS011;1625;49.884;8.666;2022-08-14T03:26:18;9.77;;;9.17;;
3225;SDS011;1625;49.884;8.666;2022-08-14T03:28:50;11.53;;;10.60;;
3225;SDS011;1625;49.884;8.666;2022-08-14T03:31:16;10.87;;;10.17;;
3225;SDS011;1625;49.884;8.666;2022-08-14T03:33:47;11.57;;;10.77;;
3225;SDS011;1625;49.884;8.666;2022-08-14T03:36:14;11.27;;;10.47;;
3225;SDS011;1625;49.884;8.666;2022-08-14T04:51:14;104.23;;;93.40;;
3225;SDS011;1625;49.884;8.666;2022-08-14T04:53:43;87.60;;;78.50;;
3225;SDS011;1625;49.884;8.666;2022-08-14T04:56:11;97.63;;;87.20;;
3225;SDS011;1625;49.884;8.666;2022-08-14T04:58:39;87.60;;;78.50;;
3225;SDS011;1625;49.884;8.666;2022-08-14T05:01:07;77.50;;;69.90;;
3225;SDS011;1625;49.884;8.666;2022-08-14T05:03:35;77.37;;;69.43;;
3225;SDS011;1625;49.884;8.666;2022-08-14T05:06:03;78.00;;;69.90;;
3225;SDS011;1625;49.884;8.666;2022-08-14T05:08:30;81.07;;;72.63;;
3225;SDS011;1625;49.884;8.666;2022-08-14T05:10:57;79.73;;;71.03;;
3225;SDS011;1625;49.884;8.666;2022-08-14T05:13:25;81.00;;;73.40;;
3225;SDS011;1625;49.884;8.666;2022-08-14T05:15:53;84.03;;;75.30;;
3225;SDS011;1625;49.884;8.666;2022-08-14T05:18:27;85.03;;;75.77;;
3225;SDS011;1625;49.884;8.666;2022-08-14T05:20:56;79.20;;;70.73;;
3225;SDS011;1625;49.884;8.666;2022-08-14T05:23:27;81.90;;;73.80;;
3225;SDS011;1625;49.884;8.666;2022-08-14T05:25:54;77.27;;;69.57;;
3225;SDS011;1625;49.884;8.666;2022-08-14T05:28:37;76.03;;;68.23;;
3225;SDS011;1625;49.884;8.666;2022-08-14T05:31:04;71.73;;;64.40;;
3225;SDS011;1625;49.884;8.666;2022-08-14T05:33:31;73.57;;;65.80;;
3225;SDS011;1625;49.884;8.666;2022-08-14T05:35:59;69.40;;;62.30;;
3225;SDS011;1625;49.884;8.666;2022-08-14T05:38:33;68.27;;;61.13;;
3225;SDS011;1625;49.884;8.666;2022-08-14T05:41:02;67.67;;;60.77;;
3225;SDS011;1625;49.884;8.666;2022-08-14T05:43:29;66.60;;;59.90;;
3225;SDS011;1625;49.884;8.666;2022-08-14T05:45:55;71.03;;;64.07;;
3225;SDS011;1625;49.884;8.666;2022-08-14T10:16:52;10.10;;;8.70;;
3225;SDS011;1625;49.884;8.666;2022-08-14T10:19:20;9.60;;;8.73;;
3225;SDS011;1625;49.884;8.666;2022-08-14T10:21:57;7.47;;;6.97;;
3225;SDS011;1625;49.884;8.666;2022-08-14T10:24:30;8.17;;;7.50;;
3225;SDS011;1625;49.884;8.666;2022-08-14T10:26:58;7.30;;;6.80;;
3225;SDS011;1625;49.884;8.666;2022-08-14T10:29:32;11.63;;;10.70;;
3225;SDS011;1625;49.884;8.666;2022-08-14T10:31:59;8.50;;;7.70;;
3225;SDS011;1625;49.884;8.666;2022-08-14T10:34:32;9.07;;;6.80;;
3225;SDS011;1625;49.884;8.666;2022-08-14T10:37:07;9.30;;;8.70;;
3225;SDS011;1625;49.884;8.666;2022-08-14T10:39:36;7.77;;;7.20;;
3225;SDS011;1625;49.884;8.666;2022-08-14T10:42:03;8.40;;;7.80;;
3225;SDS011;1625;49.884;8.666;2022-08-14T10:44:37;12.47;;;11.30;;
3225;SDS011;1625;49.884;8.666;2022-08-14T10:47:02;9.70;;;8.90;;
3225;SDS011;1625;49.884;8.666;2022-08-14T10:49:33;6.57;;;6.17;;
3225;SDS011;1625;49.884;8.666;2022-08-14T10:57:15;5.97;;;5.57;;
3225;SDS011;1625;49.884;8.666;2022-08-14T10:59:58;8.07;;;7.37;;
3225;SDS011;1625;49.884;8.666;2022-08-14T11:02:28;7.90;;;7.40;;
3225;SDS011;1625;49.884;8.666;2022-08-14T11:05:04;7.00;;;6.30;;
3225;SDS011;1625;49.884;8.666;2022-08-14T11:07:31;7.40;;;6.90;;
3225;SDS011;1625;49.884;8.666;2022-08-14T11:10:00;7.60;;;7.10;;
3225;SDS011;1625;49.884;8.666;2022-08-14T11:15:11;6.50;;;6.03;;
3225;SDS011;1625;49.884;8.666;2022-08-14T11:17:45;7.67;;;7.07;;
3225;SDS011;1625;49.884;8.666;2022-08-14T11:20:13;6.20;;;5.80;;
3225;SDS011;1625;49.884;8.666;2022-08-14T11:22:40;5.90;;;5.60;;
3225;SDS011;1625;49.884;8.666;2022-08-14T11:25:11;6.63;;;6.23;;
3225;SDS011;1625;49.884;8.666;2022-08-14T11:27:39;5.83;;;5.53;;
3225;SDS011;1625;49.884;8.666;2022-08-14T11:30:11;6.60;;;6.20;;
3225;SDS011;1625;49.884;8.666;2022-08-14T11:32:39;6.57;;;6.17;;
3225;SDS011;1625;49.884;8.666;2022-08-14T11:35:09;7.33;;;6.83;;
3225;SDS011;1625;49.884;8.666;2022-08-14T11:37:36;7.30;;;6.80;;
3225;SDS011;1625;49.884;8.666;2022-08-14T11:40:03;5.73;;;5.33;;
3225;SDS011;1625;49.884;8.666;2022-08-14T11:42:29;6.80;;;6.40;;
3225;SDS011;1625;49.884;8.666;2022-08-14T11:44:57;6.53;;;6.13;;
3225;SDS011;1625;49.884;8.666;2022-08-14T11:47:24;6.97;;;6.43;;
3225;SDS011;1625;49.884;8.666;2022-08-14T11:49:50;6.53;;;6.03;;
3225;SDS011;1625;49.884;8.666;2022-08-14T11:52:15;5.43;;;5.13;;
3225;SDS011;1625;49.884;8.666;2022-08-14T11:54:43;5.30;;;5.00;;
3225;SDS011;1625;49.884;8.666;2022-08-14T11:57:17;5.67;;;5.37;;
3225;SDS011;1625;49.884;8.666;2022-08-14T11:59:43;5.50;;;5.10;;
3225;SDS011;1625;49.884;8.666;2022-08-14T12:02:16;5.87;;;5.47;;
3225;SDS011;1625;49.884;8.666;2022-08-14T12:04:51;5.40;;;5.10;;
3225;SDS011;1625;49.884;8.666;2022-08-14T12:07:18;5.87;;;5.47;;
3225;SDS011;1625;49.884;8.666;2022-08-14T12:09:45;6.17;;;5.77;;
3225;SDS011;1625;49.884;8.666;2022-08-14T12:12:20;5.40;;;5.10;;
3225;SDS011;1625;49.884;8.666;2022-08-14T12:14:55;5.67;;;5.20;;
3225;SDS011;1625;49.884;8.666;2022-08-14T12:17:23;5.30;;;5.00;;
3225;SDS011;1625;49.884;8.666;2022-08-14T12:19:50;5.40;;;5.10;;
3225;SDS011;1625;49.884;8.666;2022-08-14T12:25:05;5.27;;;4.97;;
3225;SDS011;1625;49.884;8.666;2022-08-14T12:27:40;5.10;;;4.80;;
3225;SDS011;1625;49.884;8.666;2022-08-14T12:30:08;5.73;;;5.33;;
3225;SDS011;1625;49.884;8.666;2022-08-14T12:32:43;6.10;;;5.53;;
3225;SDS011;1625;49.884;8.666;2022-08-14T12:35:11;5.83;;;5.40;;
3225;SDS011;1625;49.884;8.666;2022-08-14T12:37:37;5.30;;;4.90;;
3225;SDS011;1625;49.884;8.666;2022-08-14T12:40:12;5.23;;;4.93;;
3225;SDS011;1625;49.884;8.666;2022-08-14T12:42:39;5.60;;;5.20;;
3225;SDS011;1625;49.884;8.666;2022-08-14T12:45:05;4.97;;;4.67;;
3225;SDS011;1625;49.884;8.666;2022-08-14T12:47:31;5.53;;;5.03;;
3225;SDS011;1625;49.884;8.666;2022-08-14T12:49:57;5.23;;;4.93;;
3225;SDS011;1625;49.884;8.666;2022-08-14T12:52:33;5.53;;;5.10;;
3225;SDS011;1625;49.884;8.666;2022-08-14T12:55:00;5.50;;;5.10;;
3225;SDS011;1625;49.884;8.666;2022-08-14T12:57:38;5.70;;;5.30;;
3225;SDS011;1625;49.884;8.666;2022-08-14T13:00:19;5.33;;;5.03;;
3225;SDS011;1625;49.884;8.666;2022-08-14T13:02:50;5.67;;;5.37;;
3225;SDS011;1625;49.884;8.666;2022-08-14T13:05:21;5.30;;;5.00;;
3225;SDS011;1625;49.884;8.666;2022-08-14T13:07:48;5.93;;;5.37;;
3225;SDS011;1625;49.884;8.666;2022-08-14T13:10:16;5.40;;;5.10;;
3225;SDS011;1625;49.884;8.666;2022-08-14T13:12:46;5.30;;;5.00;;
3225;SDS011;1625;49.884;8.666;2022-08-14T13:15:13;5.50;;;5.10;;
3225;SDS011;1625;49.884;8.666;2022-08-14T13:17:46;5.10;;;4.80;;
3225;SDS011;1625;49.884;8.666;2022-08-14T13:20:14;5.90;;;5.60;;
3225;SDS011;1625;49.884;8.666;2022-08-14T13:22:41;5.20;;;4.80;;
3225;SDS011;1625;49.884;8.666;2022-08-14T13:25:12;5.83;;;5.43;;
3225;SDS011;1625;49.884;8.666;2022-08-14T13:27:39;5.50;;;5.20;;
3225;SDS011;1625;49.884;8.666;2022-08-14T13:30:09;5.10;;;4.80;;
3225;SDS011;1625;49.884;8.666;2022-08-14T13:32:36;5.80;;;5.40;;
3225;SDS011;1625;49.884;8.666;2022-08-14T13:35:08;5.50;;;5.20;;
3225;SDS011;1625;49.884;8.666;2022-08-14T13:37:35;5.60;;;5.30;;
3225;SDS011;1625;49.884;8.666;2022-08-14T13:40:01;5.67;;;5.27;;
3225;SDS011;1625;49.884;8.666;2022-08-14T13:42:28;5.73;;;5.23;;
3225;SDS011;1625;49.884;8.666;2022-08-14T13:44:54;5.90;;;5.50;;
3225;SDS011;1625;49.884;8.666;2022-08-14T13:47:22;5.67;;;5.27;;
3225;SDS011;1625;49.884;8.666;2022-08-14T13:49:50;5.90;;;5.50;;
3225;SDS011;1625;49.884;8.666;2022-08-14T13:52:17;5.40;;;5.10;;
3225;SDS011;1625;49.884;8.666;2022-08-14T13:54:45;11.30;;;10.30;;
3225;SDS011;1625;49.884;8.666;2022-08-14T13:57:13;7.00;;;6.50;;
3225;SDS011;1625;49.884;8.666;2022-08-14T13:59:48;17.00;;;15.00;;
3225;SDS011;1625;49.884;8.666;2022-08-14T14:02:15;17.97;;;16.23;;
3225;SDS011;1625;49.884;8.666;2022-08-14T14:04:43;16.57;;;15.10;;
3225;SDS011;1625;49.884;8.666;2022-08-14T14:07:11;15.80;;;14.40;;
3225;SDS011;1625;49.884;8.666;2022-08-14T14:09:44;7.93;;;7.40;;
3225;SDS011;1625;49.884;8.666;2022-08-14T14:12:11;6.17;;;5.67;;
3225;SDS011;1625;49.884;8.666;2022-08-14T14:14:38;37.23;;;33.63;;
3225;SDS011;1625;49.884;8.666;2022-08-14T14:17:09;6.80;;;6.30;;
3225;SDS011;1625;49.884;8.666;2022-08-14T14:19:37;6.27;;;5.77;;
3225;SDS011;1625;49.884;8.666;2022-08-14T14:22:07;5.80;;;5.40;;
3225;SDS011;1625;49.884;8.666;2022-08-14T14:24:32;5.73;;;5.37;;
3225;SDS011;1625;49.884;8.666;2022-08-14T14:27:00;5.90;;;5.50;;
3225;SDS011;1625;49.884;8.666;2022-08-14T14:29:30;6.57;;;6.07;;
3225;SDS011;1625;49.884;8.666;2022-08-14T14:31:58;9.20;;;8.30;;
3225;SDS011;1625;49.884;8.666;2022-08-14T14:34:25;8.63;;;8.03;;
3225;SDS011;1625;49.884;8.666;2022-08-14T14:36:52;6.23;;;5.90;;
3225;SDS011;1625;49.884;8.666;2022-08-14T14:39:22;7.13;;;6.63;;
3225;SDS011;1625;49.884;8.666;2022-08-14T14:41:52;6.67;;;6.27;;
3225;SDS011;1625;49.884;8.666;2022-08-14T14:44:24;5.70;;;5.30;;
3225;SDS011;1625;49.884;8.666;2022-08-14T14:46:56;6.10;;;5.60;;
3225;SDS011;1625;49.884;8.666;2022-08-14T14:49:22;11.03;;;10.13;;
3225;SDS011;1625;49.884;8.666;2022-08-14T14:51:49;5.77;;;5.47;;
3225;SDS011;1625;49.884;8.666;2022-08-14T14:54:15;5.93;;;5.53;;
3225;SDS011;1625;49.884;8.666;2022-08-14T14:56:42;15.30;;;14.10;;
3225;SDS011;1625;49.884;8.666;2022-08-14T14:59:11;7.10;;;6.50;;
3225;SDS011;1625;49.884;8.666;2022-08-14T15:01:38;5.97;;;5.67;;
3225;SDS011;1625;49.884;8.666;2022-08-14T15:04:04;6.57;;;6.17;;
3225;SDS011;1625;49.884;8.666;2022-08-14T15:06:31;6.33;;;5.80;;
3225;SDS011;1625;49.884;8.666;2022-08-14T15:08:58;6.20;;;5.70;;
3225;SDS011;1625;49.884;8.666;2022-08-14T15:11:24;6.13;;;5.73;;
3225;SDS011;1625;49.884;8.666;2022-08-14T15:13:51;6.30;;;5.80;;
3225;SDS011;1625;49.884;8.666;2022-08-14T15:16:16;5.67;;;5.37;;
3225;SDS011;1625;49.884;8.666;2022-08-14T15:18:42;5.70;;;5.30;;
3225;SDS011;1625;49.884;8.666;2022-08-14T15:21:10;5.60;;;5.30;;
3225;SDS011;1625;49.884;8.666;2022-08-14T15:23:36;4.90;;;4.60;;
3225;SDS011;1625;49.884;8.666;2022-08-14T15:26:02;5.47;;;5.18;;
3225;SDS011;1625;49.884;8.666;2022-08-14T15:28:29;5.83;;;5.23;;
3225;SDS011;1625;49.884;8.666;2022-08-14T15:30:59;5.60;;;5.30;;
3225;SDS011;1625;49.884;8.666;2022-08-14T15:33:25;5.77;;;5.37;;
3225;SDS011;1625;49.884;8.666;2022-08-14T15:36:10;5.53;;;5.13;;
3225;SDS011;1625;49.884;8.666;2022-08-14T15:38:36;6.03;;;5.63;;
3225;SDS011;1625;49.884;8.666;2022-08-14T15:41:02;6.00;;;5.40;;
3225;SDS011;1625;49.884;8.666;2022-08-14T15:43:29;6.10;;;5.70;;
3225;SDS011;1625;49.884;8.666;2022-08-14T15:46:05;6.00;;;5.50;;
3225;SDS011;1625;49.884;8.666;2022-08-14T15:48:32;5.50;;;5.10;;
3225;SDS011;1625;49.884;8.666;2022-08-14T15:50:59;5.67;;;5.37;;
3225;SDS011;1625;49.884;8.666;2022-08-14T15:53:25;5.80;;;5.40;;
3225;SDS011;1625;49.884;8.666;2022-08-14T15:55:51;6.03;;;5.63;;
3225;SDS011;1625;49.884;8.666;2022-08-14T15:58:18;5.73;;;5.33;;
3225;SDS011;1625;49.884;8.666;2022-08-14T16:00:48;6.77;;;6.23;;
3225;SDS011;1625;49.884;8.666;2022-08-14T16:03:34;5.90;;;5.60;;
3225;SDS011;1625;49.884;8.666;2022-08-14T16:06:00;5.43;;;5.13;;
3225;SDS011;1625;49.884;8.666;2022-08-14T16:08:25;5.70;;;5.20;;
3225;SDS011;1625;49.884;8.666;2022-08-14T16:10:51;9.70;;;5.77;;
3225;SDS011;1625;49.884;8.666;2022-08-14T16:13:17;6.47;;;6.07;;
3225;SDS011;1625;49.884;8.666;2022-08-14T16:15:42;5.70;;;5.40;;
3225;SDS011;1625;49.884;8.666;2022-08-14T16:18:12;6.17;;;5.70;;
3225;SDS011;1625;49.884;8.666;2022-08-14T16:20:43;5.47;;;5.10;;
3225;SDS011;1625;49.884;8.666;2022-08-14T16:23:20;6.80;;;6.30;;
3225;SDS011;1625;49.884;8.666;2022-08-14T16:25:50;6.10;;;5.70;;
3225;SDS011;1625;49.884;8.666;2022-08-14T16:28:16;5.47;;;5.10;;
3225;SDS011;1625;49.884;8.666;2022-08-14T16:30:42;5.97;;;5.60;;
3225;SDS011;1625;49.884;8.666;2022-08-14T16:33:10;11.30;;;10.40;;
3225;SDS011;1625;49.884;8.666;2022-08-14T16:35:39;9.93;;;9.10;;
3225;SDS011;1625;49.884;8.666;2022-08-14T16:38:06;6.30;;;5.90;;
3225;SDS011;1625;49.884;8.666;2022-08-14T16:40:32;6.97;;;6.47;;
3225;SDS011;1625;49.884;8.666;2022-08-14T16:42:59;8.00;;;6.60;;
3225;SDS011;1625;49.884;8.666;2022-08-14T16:45:25;7.23;;;6.13;;
3225;SDS011;1625;49.884;8.666;2022-08-14T16:47:51;7.40;;;6.90;;
3225;SDS011;1625;49.884;8.666;2022-08-14T16:50:17;7.00;;;6.50;;
3225;SDS011;1625;49.884;8.666;2022-08-14T16:52:43;7.57;;;6.97;;
3225;SDS011;1625;49.884;8.666;2022-08-14T16:55:09;6.57;;;6.03;;
3225;SDS011;1625;49.884;8.666;2022-08-14T16:57:49;7.00;;;6.60;;
3225;SDS011;1625;49.884;8.666;2022-08-14T17:02:57;7.70;;;7.20;;
3225;SDS011;1625;49.884;8.666;2022-08-14T17:05:34;7.40;;;6.80;;
3225;SDS011;1625;49.884;8.666;2022-08-14T17:10:32;6.70;;;6.30;;
3225;SDS011;1625;49.884;8.666;2022-08-14T17:13:14;7.07;;;6.47;;
3225;SDS011;1625;49.884;8.666;2022-08-14T17:18:40;6.93;;;6.53;;
3225;SDS011;1625;49.884;8.666;2022-08-14T17:21:42;6.67;;;6.27;;
3225;SDS011;1625;49.884;8.666;2022-08-14T17:24:03;8.57;;;6.30;;
3225;SDS011;1625;49.884;8.666;2022-08-14T17:26:40;6.10;;;5.60;;
3225;SDS011;1625;49.884;8.666;2022-08-14T17:31:39;5.57;;;5.03;;
3225;SDS011;1625;49.884;8.666;2022-08-14T17:34:06;7.80;;;7.20;;
3225;SDS011;1625;49.884;8.666;2022-08-14T17:36:32;6.33;;;5.93;;
3225;SDS011;1625;49.884;8.666;2022-08-14T17:39:11;6.50;;;6.07;;
3225;SDS011;1625;49.884;8.666;2022-08-14T17:46:41;6.33;;;5.93;;
3225;SDS011;1625;49.884;8.666;2022-08-14T17:49:12;7.53;;;6.83;;
3225;SDS011;1625;49.884;8.666;2022-08-14T17:54:28;7.70;;;7.20;;
3225;SDS011;1625;49.884;8.666;2022-08-14T17:56:58;6.13;;;5.63;;
3225;SDS011;1625;49.884;8.666;2022-08-14T17:59:35;6.37;;;5.87;;
3225;SDS011;1625;49.884;8.666;2022-08-14T18:02:09;9.20;;;8.50;;
3225;SDS011;1625;49.884;8.666;2022-08-14T18:04:37;9.10;;;8.43;;
3225;SDS011;1625;49.884;8.666;2022-08-14T18:07:05;6.67;;;6.17;;
3225;SDS011;1625;49.884;8.666;2022-08-14T18:09:35;7.40;;;6.90;;
3225;SDS011;1625;49.884;8.666;2022-08-14T18:12:02;7.03;;;6.53;;
3225;SDS011;1625;49.884;8.666;2022-08-14T18:14:31;8.27;;;7.70;;
3225;SDS011;1625;49.884;8.666;2022-08-14T18:16:58;7.27;;;6.63;;
3225;SDS011;1625;49.884;8.666;2022-08-14T18:19:25;6.43;;;6.03;;
3225;SDS011;1625;49.884;8.666;2022-08-14T18:21:53;7.33;;;6.60;;
3225;SDS011;1625;49.884;8.666;2022-08-14T18:24:19;7.00;;;6.50;;
3225;SDS011;1625;49.884;8.666;2022-08-14T18:26:46;7.27;;;6.77;;
3225;SDS011;1625;49.884;8.666;2022-08-14T18:29:15;7.50;;;7.00;;
3225;SDS011;1625;49.884;8.666;2022-08-14T18:31:42;8.00;;;7.40;;
3225;SDS011;1625;49.884;8.666;2022-08-14T18:34:15;10.07;;;7.90;;
3225;SDS011;1625;49.884;8.666;2022-08-14T18:36:50;9.10;;;8.30;;
3225;SDS011;1625;49.884;8.666;2022-08-14T18:39:28;8.40;;;7.70;;
3225;SDS011;1625;49.884;8.666;2022-08-14T18:52:18;46.63;;;39.87;;
3225;SDS011;1625;49.884;8.666;2022-08-14T18:54:44;10.97;;;9.87;;
3225;SDS011;1625;49.884;8.666;2022-08-14T18:57:10;16.17;;;14.57;;
3225;SDS011;1625;49.884;8.666;2022-08-14T18:59:36;9.10;;;8.30;;
3225;SDS011;1625;49.884;8.666;2022-08-14T19:04:53;10.17;;;9.23;;
3225;SDS011;1625;49.884;8.666;2022-08-14T19:07:20;7.87;;;7.27;;
3225;SDS011;1625;49.884;8.666;2022-08-14T19:09:50;9.93;;;9.00;;
3225;SDS011;1625;49.884;8.666;2022-08-14T19:15:21;9.60;;;8.80;;
3225;SDS011;1625;49.884;8.666;2022-08-14T19:17:58;9.80;;;8.93;;
3225;SDS011;1625;49.884;8.666;2022-08-14T19:20:25;10.80;;;10.00;;
3225;SDS011;1625;49.884;8.666;2022-08-14T19:23:14;10.70;;;9.90;;
3225;SDS011;1625;49.884;8.666;2022-08-14T19:25:47;146.03;;;130.57;;
3225;SDS011;1625;49.884;8.666;2022-08-14T19:28:22;13.40;;;12.30;;
3225;SDS011;1625;49.884;8.666;2022-08-14T19:31:33;14.47;;;13.47;;
3225;SDS011;1625;49.884;8.666;2022-08-14T19:33:58;9.17;;;8.57;;
3225;SDS011;1625;49.884;8.666;2022-08-14T19:42:12;9.83;;;9.03;;
3225;SDS011;1625;49.884;8.666;2022-08-14T19:44:39;11.17;;;10.47;;
3225;SDS011;1625;49.884;8.666;2022-08-14T19:47:05;9.00;;;8.30;;
3225;SDS011;1625;49.884;8.666;2022-08-14T19:49:35;10.37;;;9.63;;
3225;SDS011;1625;49.884;8.666;2022-08-14T19:55:12;9.30;;;8.60;;
3225;SDS011;1625;49.884;8.666;2022-08-14T19:57:42;8.60;;;7.80;;
3225;SDS011;1625;49.884;8.666;2022-08-14T20:00:11;9.63;;;8.70;;
3225;SDS011;1625;49.884;8.666;2022-08-14T20:02:42;11.47;;;10.77;;
3225;SDS011;1625;49.884;8.666;2022-08-14T20:05:15;131.27;;;117.87;;
3225;SDS011;1625;49.884;8.666;2022-08-14T20:07:42;12.53;;;11.47;;
3225;SDS011;1625;49.884;8.666;2022-08-14T20:10:09;8.73;;;7.93;;
3225;SDS011;1625;49.884;8.666;2022-08-14T20:13:08;7.97;;;7.47;;
3225;SDS011;1625;49.884;8.666;2022-08-14T20:15:36;8.10;;;7.50;;
3225;SDS011;1625;49.884;8.666;2022-08-14T20:18:03;7.53;;;6.87;;
3225;SDS011;1625;49.884;8.666;2022-08-14T20:20:36;7.73;;;7.23;;
3225;SDS011;1625;49.884;8.666;2022-08-14T20:23:13;8.57;;;7.77;;
3225;SDS011;1625;49.884;8.666;2022-08-14T20:25:42;7.83;;;7.23;;
3225;SDS011;1625;49.884;8.666;2022-08-14T20:28:28;8.10;;;7.50;;
3225;SDS011;1625;49.884;8.666;2022-08-14T20:36:36;8.63;;;8.13;;
3225;SDS011;1625;49.884;8.666;2022-08-14T20:39:08;9.00;;;8.20;;
3225;SDS011;1625;49.884;8.666;2022-08-14T20:41:35;9.00;;;8.40;;
3225;SDS011;1625;49.884;8.666;2022-08-14T20:44:05;8.17;;;7.60;;
3225;SDS011;1625;49.884;8.666;2022-08-14T20:46:49;8.00;;;7.47;;
3225;SDS011;1625;49.884;8.666;2022-08-14T20:49:26;9.23;;;8.50;;
3225;SDS011;1625;49.884;8.666;2022-08-14T20:51:52;7.10;;;6.60;;
3225;SDS011;1625;49.884;8.666;2022-08-14T20:54:30;7.57;;;7.00;;
3225;SDS011;1625;49.884;8.666;2022-08-14T20:57:07;7.23;;;6.70;;
3225;SDS011;1625;49.884;8.666;2022-08-14T20:59:39;7.77;;;7.27;;
3225;SDS011;1625;49.884;8.666;2022-08-14T21:05:00;8.10;;;7.50;;
3225;SDS011;1625;49.884;8.666;2022-08-14T21:07:28;9.10;;;8.40;;
3225;SDS011;1625;49.884;8.666;2022-08-14T21:10:10;8.70;;;7.27;;
3225;SDS011;1625;49.884;8.666;2022-08-14T21:12:47;8.40;;;7.60;;
3225;SDS011;1625;49.884;8.666;2022-08-14T21:15:13;8.03;;;7.30;;
3225;SDS011;1625;49.884;8.666;2022-08-14T21:17:44;8.67;;;7.60;;
3225;SDS011;1625;49.884;8.666;2022-08-14T21:20:11;8.17;;;7.50;;
3225;SDS011;1625;49.884;8.666;2022-08-14T21:22:38;7.87;;;7.27;;
3225;SDS011;1625;49.884;8.666;2022-08-14T21:25:08;7.70;;;7.10;;
3225;SDS011;1625;49.884;8.666;2022-08-14T21:27:36;8.50;;;7.80;;
3225;SDS011;1625;49.884;8.666;2022-08-14T21:30:03;8.00;;;7.40;;
3225;SDS011;1625;49.884;8.666;2022-08-14T21:32:30;8.40;;;7.63;;
3225;SDS011;1625;49.884;8.666;2022-08-14T21:35:02;7.10;;;6.53;;
3225;SDS011;1625;49.884;8.666;2022-08-14T21:37:30;8.80;;;8.10;;
3225;SDS011;1625;49.884;8.666;2022-08-14T21:39:56;8.40;;;7.70;;
3225;SDS011;1625;49.884;8.666;2022-08-14T21:42:22;7.20;;;6.70;;
3225;SDS011;1625;49.884;8.666;2022-08-14T21:44:48;7.40;;;6.80;;
3225;SDS011;1625;49.884;8.666;2022-08-14T21:47:16;7.33;;;6.23;;
3225;SDS011;1625;49.884;8.666;2022-08-14T21:49:42;7.50;;;6.90;;
3225;SDS011;1625;49.884;8.666;2022-08-14T21:52:10;8.30;;;7.70;;
3225;SDS011;1625;49.884;8.666;2022-08-14T21:54:38;8.00;;;7.40;;
3225;SDS011;1625;49.884;8.666;2022-08-14T21:57:04;7.47;;;6.80;;
3225;SDS011;1625;49.884;8.666;2022-08-14T21:59:32;7.43;;;6.93;;
3225;SDS011;1625;49.884;8.666;2022-08-14T22:01:59;8.70;;;8.03;;
3225;SDS011;1625;49.884;8.666;2022-08-14T22:04:26;7.87;;;7.17;;